Time;durP1;ratioP1;P1;durP2;ratioP2;P2;SDS_P1;SDS_P2;PMS_P1;PMS_P2;Temp;Humidity;BMP_temperature;BMP_pressure;BME280_temperature;BME280_humidity;BME280_pressure;Samples;Min_cycle;Max_cycle;Signal;HPM_P1;HPM_P2
2022/11/04 00:00:48;;;;;;;1.50;1.20;;;14.10;69.70;;;;;;5040838;28;20421;-48
2022/11/04 00:03:15;;;;;;;1.50;1.30;;;14.10;69.60;;;;;;5043005;28;21028;-50
2022/11/04 00:05:44;;;;;;;2.45;1.35;;;14.10;69.70;;;;;;5028598;28;20383;-49
2022/11/04 00:08:22;;;;;;;1.42;1.27;;;14.10;69.70;;;;;;5036878;28;20049;-47
2022/11/04 00:13:42;;;;;;;2.25;1.70;;;14.10;70.00;;;;;;5048072;28;20567;-48
2022/11/04 00:18:57;;;;;;;2.42;1.70;;;14.10;69.90;;;;;;5030968;28;20049;-51
2022/11/04 00:29:43;;;;;;;3.70;2.50;;;14.10;70.20;;;;;;5034210;28;20044;-53
2022/11/04 00:34:55;;;;;;;3.13;1.75;;;14.10;70.30;;;;;;5046350;28;20574;-53
2022/11/04 00:37:22;;;;;;;2.10;1.83;;;14.00;70.30;;;;;;5039989;28;20627;-50
2022/11/04 00:39:49;;;;;;;3.08;1.90;;;14.00;70.30;;;;;;5046486;28;20116;-50
2022/11/04 00:42:15;;;;;;;2.92;2.03;;;14.00;70.30;;;;;;5052611;28;20044;-49
2022/11/04 00:44:42;;;;;;;2.45;1.92;;;14.00;70.30;;;;;;5043576;28;20524;-49
2022/11/04 00:47:11;;;;;;;2.15;1.77;;;14.00;70.20;;;;;;5032822;28;20041;-50
2022/11/04 00:49:38;;;;;;;2.35;1.85;;;13.90;70.30;;;;;;5044528;28;20083;-53
2022/11/04 00:52:04;;;;;;;2.67;1.60;;;13.90;70.40;;;;;;5054261;28;20382;-53
2022/11/04 00:54:31;;;;;;;2.80;2.40;;;13.90;70.60;;;;;;5051569;28;20052;-53
2022/11/04 00:56:59;;;;;;;2.80;2.25;;;13.90;70.80;;;;;;5045354;28;20124;-49
2022/11/04 00:59:25;;;;;;;3.83;1.70;;;13.90;70.80;;;;;;5046417;28;20044;-52
2022/11/04 01:01:54;;;;;;;3.17;1.52;;;13.80;70.60;;;;;;5056430;28;20566;-48
2022/11/04 01:04:21;;;;;;;3.30;1.80;;;13.80;70.50;;;;;;5038828;28;20069;-52
2022/11/04 01:06:48;;;;;;;1.58;1.45;;;13.80;70.50;;;;;;5035617;28;20049;-53
2022/11/04 01:09:15;;;;;;;2.88;1.85;;;13.80;70.50;;;;;;5046951;28;20045;-49
2022/11/04 01:11:41;;;;;;;1.90;1.40;;;13.70;70.40;;;;;;5055980;28;20045;-49
2022/11/04 01:14:08;;;;;;;2.08;1.52;;;13.70;70.60;;;;;;5039279;28;20056;-55
2022/11/04 01:16:35;;;;;;;1.85;1.70;;;13.70;70.70;;;;;;5037199;28;20063;-55
2022/11/04 01:19:02;;;;;;;3.58;1.98;;;13.70;70.80;;;;;;5037943;28;20045;-51
2022/11/04 01:21:31;;;;;;;3.00;1.80;;;13.70;70.70;;;;;;5052944;28;20072;-55
2022/11/04 01:24:02;;;;;;;2.15;1.38;;;13.60;70.60;;;;;;5028962;28;20047;-52
2022/11/04 01:26:36;;;;;;;2.35;1.60;;;13.60;70.60;;;;;;5044264;28;20045;-52
2022/11/04 01:29:03;;;;;;;3.35;1.60;;;13.60;70.50;;;;;;5046467;28;20521;-54
2022/11/04 01:31:30;;;;;;;5.03;2.50;;;13.60;70.40;;;;;;5051455;28;20489;-55
2022/11/04 01:33:58;;;;;;;3.08;2.35;;;13.50;70.50;;;;;;5035096;28;20045;-53
2022/11/04 01:36:26;;;;;;;5.70;2.20;;;13.50;70.50;;;;;;5038122;28;20508;-52
2022/11/04 01:38:56;;;;;;;3.92;2.65;;;13.50;70.50;;;;;;5032079;28;20137;-53
2022/11/04 01:41:31;;;;;;;3.13;2.05;;;13.40;70.70;;;;;;5032299;28;20745;-48
2022/11/04 01:43:58;;;;;;;3.97;2.40;;;13.40;70.80;;;;;;5033983;28;20545;-52
2022/11/04 01:46:37;;;;;;;3.47;3.13;;;13.40;70.70;;;;;;5041221;28;20049;-49
2022/11/04 01:49:25;;;;;;;3.33;2.30;;;13.40;70.90;;;;;;5051281;28;20045;-50
2022/11/04 01:51:59;;;;;;;3.58;1.92;;;13.30;70.90;;;;;;5040591;28;20043;-52
2022/11/04 01:54:26;;;;;;;2.13;1.63;;;13.30;70.80;;;;;;5042269;28;20052;-49
2022/11/04 01:56:54;;;;;;;3.53;1.88;;;13.20;70.70;;;;;;5045089;28;20041;-49
2022/11/04 01:59:28;;;;;;;3.35;2.00;;;13.20;70.80;;;;;;5046561;28;20042;-52
2022/11/04 02:02:00;;;;;;;5.47;2.28;;;13.20;71.00;;;;;;5025586;28;20037;-48
2022/11/04 02:04:29;;;;;;;2.85;1.92;;;13.20;70.80;;;;;;5040164;28;20041;-49
2022/11/04 02:07:05;;;;;;;3.28;2.30;;;13.10;70.80;;;;;;5045469;28;20053;-49
2022/11/04 02:09:34;;;;;;;4.57;2.40;;;13.10;71.00;;;;;;5034886;28;20046;-53
2022/11/04 02:14:50;;;;;;;2.53;1.75;;;13.10;70.80;;;;;;5034437;28;20283;-53
2022/11/04 02:17:17;;;;;;;3.58;1.88;;;13.00;70.90;;;;;;5035759;28;20038;-53
2022/11/04 02:20:18;;;;;;;3.30;1.17;;;13.00;71.00;;;;;;5023726;28;20055;-49
2022/11/04 02:22:58;;;;;;;3.47;1.50;;;13.00;71.40;;;;;;5037957;28;20176;-52
2022/11/04 02:25:41;;;;;;;3.13;1.48;;;12.90;71.30;;;;;;5031109;28;20120;-48
2022/11/04 02:28:35;;;;;;;2.45;1.75;;;12.90;71.30;;;;;;5031361;28;20494;-49
2022/11/04 02:31:13;;;;;;;2.55;1.38;;;12.90;71.30;;;;;;5033221;28;20816;-51
2022/11/04 02:34:04;;;;;;;5.32;1.60;;;12.90;71.30;;;;;;5039956;28;20135;-50
2022/11/04 02:37:00;;;;;;;3.00;1.73;;;12.90;71.60;;;;;;5051399;28;20497;-49
2022/11/04 02:39:42;;;;;;;3.45;1.48;;;12.90;71.80;;;;;;5025997;28;20136;-52
2022/11/04 02:42:20;;;;;;;3.45;1.33;;;12.90;71.40;;;;;;5039725;28;20394;-52
2022/11/04 02:45:14;;;;;;;2.30;1.17;;;12.80;71.20;;;;;;5009095;28;20042;-51
2022/11/04 02:47:48;;;;;;;2.63;1.20;;;12.80;71.30;;;;;;5010765;28;20129;-53
2022/11/04 02:50:48;;;;;;;2.57;0.97;;;12.80;71.10;;;;;;5038096;28;20048;-52
2022/11/04 02:53:34;;;;;;;2.30;1.30;;;12.80;71.50;;;;;;5053829;28;20291;-53
2022/11/04 02:56:03;;;;;;;2.58;1.20;;;12.80;71.40;;;;;;5029564;28;20046;-52
2022/11/04 02:58:39;;;;;;;2.45;1.33;;;12.70;71.20;;;;;;5031364;28;20124;-49
2022/11/04 03:01:09;;;;;;;4.15;1.40;;;12.70;71.40;;;;;;5039564;28;20555;-49
2022/11/04 03:03:42;;;;;;;2.30;1.33;;;12.70;71.40;;;;;;5049203;28;20136;-52
2022/11/04 03:06:12;;;;;;;5.93;2.05;;;12.70;71.60;;;;;;5049178;28;20049;-53
2022/11/04 03:08:44;;;;;;;3.92;1.50;;;12.70;71.60;;;;;;5040311;28;20083;-52
2022/11/04 03:11:17;;;;;;;2.87;1.50;;;12.70;71.70;;;;;;5042148;28;20068;-52
2022/11/04 03:13:47;;;;;;;3.97;1.30;;;12.70;71.70;;;;;;5050828;28;20374;-52
2022/11/04 03:16:19;;;;;;;5.15;1.60;;;12.70;72.30;;;;;;5027672;28;20045;-51
2022/11/04 03:19:01;;;;;;;3.13;1.40;;;12.70;71.60;;;;;;5035370;28;20120;-49
2022/11/04 03:21:32;;;;;;;3.55;1.10;;;12.80;71.80;;;;;;5042283;28;20043;-52
2022/11/04 03:24:00;;;;;;;3.42;1.13;;;12.80;71.60;;;;;;5030630;28;20121;-51
2022/11/04 03:26:45;;;;;;;3.88;1.38;;;12.80;71.50;;;;;;5035251;28;20513;-52
2022/11/04 03:29:41;;;;;;;3.03;1.30;;;12.80;71.50;;;;;;5041256;28;20039;-49
2022/11/04 03:32:25;;;;;;;3.00;1.15;;;12.80;71.50;;;;;;5043550;28;20064;-51
2022/11/04 03:34:52;;;;;;;2.28;1.33;;;12.80;71.20;;;;;;5028957;28;20116;-51
2022/11/04 03:37:21;;;;;;;3.55;1.52;;;12.80;70.80;;;;;;5043528;28;20524;-52
2022/11/04 03:39:51;;;;;;;4.43;1.60;;;12.80;70.80;;;;;;5028037;28;20494;-52
2022/11/04 03:42:22;;;;;;;4.50;1.38;;;12.70;70.90;;;;;;5029247;28;20045;-52
2022/11/04 03:44:56;;;;;;;2.45;1.08;;;12.70;70.70;;;;;;5027474;28;20028;-53
2022/11/04 03:47:28;;;;;;;3.85;1.20;;;12.70;70.80;;;;;;5039964;28;20110;-52
2022/11/04 03:50:04;;;;;;;3.28;1.10;;;12.70;70.70;;;;;;5049366;28;20048;-52
2022/11/04 03:52:35;;;;;;;1.83;1.10;;;12.70;71.00;;;;;;5039896;28;20084;-52
2022/11/04 03:55:03;;;;;;;4.03;1.48;;;12.60;70.80;;;;;;5033893;28;20044;-52
2022/11/04 03:57:52;;;;;;;2.85;1.13;;;12.60;70.90;;;;;;5039121;28;20099;-52
2022/11/04 04:00:28;;;;;;;1.83;1.25;;;12.60;70.90;;;;;;5048328;28;20067;-52
2022/11/04 04:03:07;;;;;;;2.13;1.08;;;12.60;70.80;;;;;;5031610;28;20173;-51
2022/11/04 04:05:59;;;;;;;1.80;0.95;;;12.60;70.80;;;;;;5039038;28;20037;-53
2022/11/04 04:08:45;;;;;;;2.40;1.20;;;12.50;71.10;;;;;;5047214;28;20068;-51
2022/11/04 04:11:25;;;;;;;5.72;1.48;;;12.50;70.80;;;;;;5033533;28;20047;-53
2022/11/04 04:14:04;;;;;;;2.72;1.80;;;12.50;70.80;;;;;;5030573;28;20127;-53
2022/11/04 04:16:41;;;;;;;3.75;1.20;;;12.50;70.80;;;;;;5039645;28;20517;-53
2022/11/04 04:19:19;;;;;;;5.30;1.33;;;12.50;70.80;;;;;;5034947;28;20096;-52
2022/11/04 04:22:03;;;;;;;3.38;1.60;;;12.40;70.70;;;;;;5028070;28;20049;-53
2022/11/04 04:27:31;;;;;;;2.42;1.75;;;12.40;70.60;;;;;;5038850;28;20038;-52
2022/11/04 04:30:14;;;;;;;2.22;1.30;;;12.40;70.50;;;;;;5027866;28;20092;-53
2022/11/04 04:32:45;;;;;;;2.30;1.15;;;12.30;70.70;;;;;;5024954;28;20064;-48
2022/11/04 04:46:40;;;;;;;3.67;1.10;;;12.10;70.20;;;;;;5041119;28;20117;-52
2022/11/04 04:49:09;;;;;;;3.20;1.00;;;12.10;70.20;;;;;;5034473;28;20653;-51
2022/11/04 04:51:47;;;;;;;2.03;0.80;;;12.10;70.20;;;;;;5039896;28;20045;-52
2022/11/04 04:54:16;;;;;;;3.83;1.05;;;12.00;70.10;;;;;;5042778;28;20049;-48
2022/11/04 04:56:43;;;;;;;1.55;1.20;;;11.90;69.80;;;;;;5053078;28;20048;-52
2022/11/04 04:59:09;;;;;;;3.80;1.40;;;11.90;69.70;;;;;;5044921;28;20052;-52
2022/11/04 05:01:38;;;;;;;3.65;1.30;;;11.90;69.60;;;;;;5039299;28;20042;-52
2022/11/04 05:04:05;;;;;;;2.35;1.00;;;11.80;69.70;;;;;;5037795;28;20053;-49
2022/11/04 05:06:35;;;;;;;5.05;1.20;;;11.80;69.90;;;;;;5031323;28;20041;-53
2022/11/04 05:09:04;;;;;;;;;;;11.70;69.70;;;;;;5028998;28;20052;-53
2022/11/04 05:11:31;;;;;;;1.05;0.60;;;11.70;69.80;;;;;;5044430;28;19999;-50
2022/11/04 05:13:58;;;;;;;1.73;0.88;;;11.60;69.30;;;;;;5046070;28;20497;-53
2022/11/04 05:16:25;;;;;;;2.70;1.20;;;11.60;69.30;;;;;;5044181;28;20055;-49
2022/11/04 05:18:51;;;;;;;1.63;0.90;;;11.50;69.30;;;;;;5037412;28;20120;-51
2022/11/04 05:21:18;;;;;;;2.38;1.30;;;11.50;69.30;;;;;;5043599;28;20390;-52
2022/11/04 05:23:48;;;;;;;1.35;0.82;;;11.40;69.30;;;;;;5040908;28;20099;-53
2022/11/04 05:26:18;;;;;;;2.78;1.10;;;11.40;69.30;;;;;;5052831;28;20052;-50
2022/11/04 05:28:47;;;;;;;2.15;1.23;;;11.20;69.30;;;;;;5035194;28;20581;-52
2022/11/04 05:31:14;;;;;;;1.90;1.10;;;11.30;69.50;;;;;;5031360;28;20746;-50
2022/11/04 05:33:41;;;;;;;2.88;1.30;;;11.30;69.70;;;;;;5032278;28;20040;-53
2022/11/04 05:36:17;;;;;;;1.52;0.80;;;11.30;69.80;;;;;;5033675;28;20623;-48
2022/11/04 05:38:48;;;;;;;3.38;1.50;;;11.30;70.20;;;;;;5044559;28;20401;-52
2022/11/04 05:41:24;;;;;;;3.47;1.02;;;11.30;70.40;;;;;;5047622;28;20132;-52
2022/11/04 05:43:58;;;;;;;1.73;1.20;;;11.30;70.60;;;;;;5042532;28;20056;-53
2022/11/04 05:46:26;;;;;;;3.75;1.17;;;11.30;70.90;;;;;;5026451;28;20605;-51
2022/11/04 05:48:56;;;;;;;4.30;1.33;;;11.30;71.10;;;;;;5037379;28;20045;-52
2022/11/04 05:51:25;;;;;;;3.60;1.10;;;11.40;71.40;;;;;;5041103;28;20041;-50
2022/11/04 05:53:52;;;;;;;2.30;1.17;;;11.40;71.40;;;;;;5031029;28;20053;-52
2022/11/04 05:56:19;;;;;;;3.60;1.50;;;11.50;71.40;;;;;;5033887;28;20046;-52
2022/11/04 05:58:47;;;;;;;5.05;1.70;;;11.50;71.40;;;;;;5044191;28;20416;-53
2022/11/04 06:01:36;;;;;;;2.70;1.55;;;11.60;71.50;;;;;;5047396;28;20115;-51
2022/11/04 06:04:04;;;;;;;2.13;1.40;;;11.60;71.70;;;;;;5042737;28;20076;-52
2022/11/04 06:06:33;;;;;;;2.70;1.20;;;11.70;71.60;;;;;;5037690;28;20048;-52
2022/11/04 06:09:02;;;;;;;2.65;1.40;;;11.70;71.70;;;;;;5043262;28;20033;-52
2022/11/04 06:11:30;;;;;;;3.72;0.90;;;11.70;71.70;;;;;;5047392;28;20041;-52
2022/11/04 06:13:57;;;;;;;3.53;1.25;;;11.80;71.70;;;;;;5034980;28;20048;-53
2022/11/04 06:16:24;;;;;;;4.40;1.20;;;11.80;71.70;;;;;;5037874;28;20449;-51
2022/11/04 06:18:51;;;;;;;3.00;1.77;;;11.90;71.70;;;;;;5041972;28;20047;-54
2022/11/04 06:21:25;;;;;;;4.18;1.40;;;11.90;71.60;;;;;;5038972;28;20044;-52
2022/11/04 06:23:54;;;;;;;2.70;1.73;;;11.90;71.70;;;;;;5028766;28;20052;-52
2022/11/04 06:26:21;;;;;;;5.60;1.85;;;12.00;71.60;;;;;;5036663;28;20437;-50
2022/11/04 06:28:53;;;;;;;2.75;1.95;;;12.00;71.40;;;;;;5034437;28;20123;-49
2022/11/04 06:31:20;;;;;;;2.33;1.45;;;12.00;71.40;;;;;;5041463;28;20449;-51
2022/11/04 06:33:47;;;;;;;6.53;2.30;;;12.10;71.30;;;;;;5030814;28;20417;-51
2022/11/04 06:36:15;;;;;;;2.17;1.95;;;12.10;71.20;;;;;;5029049;28;20042;-53
2022/11/04 06:38:42;;;;;;;5.72;2.10;;;12.10;71.20;;;;;;5044970;28;20037;-50
2022/11/04 06:41:12;;;;;;;2.97;1.85;;;12.20;71.20;;;;;;5041286;28;20401;-51
2022/11/04 06:43:39;;;;;;;4.90;2.20;;;12.20;71.10;;;;;;5025833;28;20975;-52
2022/11/04 06:46:23;;;;;;;2.15;1.92;;;12.20;71.10;;;;;;5027014;28;20037;-51
2022/11/04 06:48:50;;;;;;;2.63;2.10;;;12.20;71.20;;;;;;5038768;28;20067;-51
2022/11/04 06:51:17;;;;;;;5.65;2.92;;;12.30;71.00;;;;;;5025905;28;20120;-49
2022/11/04 06:53:44;;;;;;;6.13;2.33;;;12.30;71.00;;;;;;5037407;28;20055;-52
2022/11/04 06:56:11;;;;;;;5.57;2.10;;;12.30;70.90;;;;;;5038649;28;20052;-51
2022/11/04 06:58:37;;;;;;;3.35;2.17;;;12.30;70.90;;;;;;5039496;28;20092;-50
2022/11/04 07:01:04;;;;;;;3.55;2.20;;;12.30;70.90;;;;;;5022526;28;20038;-51
2022/11/04 07:03:40;;;;;;;4.90;2.47;;;12.30;71.10;;;;;;5027732;28;20048;-52
2022/11/04 07:06:08;;;;;;;3.65;1.58;;;12.30;71.40;;;;;;5030660;28;20076;-51
2022/11/04 07:08:35;;;;;;;4.78;1.63;;;12.40;71.70;;;;;;5028742;28;20077;-53
2022/11/04 07:11:02;;;;;;;3.58;2.40;;;12.40;71.80;;;;;;5030765;28;20048;-52
2022/11/04 07:13:29;;;;;;;3.25;2.08;;;12.50;71.90;;;;;;5042073;28;20087;-52
2022/11/04 07:15:56;;;;;;;4.78;2.30;;;12.50;72.00;;;;;;5028207;28;20045;-52
2022/11/04 07:18:22;;;;;;;7.25;2.60;;;12.50;71.90;;;;;;5035984;28;20045;-51
2022/11/04 07:20:56;;;;;;;3.72;2.00;;;12.60;72.00;;;;;;5026299;28;20055;-51
2022/11/04 07:23:23;;;;;;;2.17;1.70;;;12.60;72.00;;;;;;5031735;28;20048;-52
2022/11/04 07:25:50;;;;;;;4.35;1.73;;;12.60;72.00;;;;;;5038158;28;20039;-50
2022/11/04 07:28:16;;;;;;;3.63;1.88;;;12.60;72.00;;;;;;5029759;28;20521;-51
2022/11/04 07:30:43;;;;;;;2.08;1.88;;;12.60;72.00;;;;;;5026559;28;20422;-52
2022/11/04 07:33:12;;;;;;;3.35;1.80;;;12.70;72.10;;;;;;5035131;28;20041;-51
2022/11/04 07:35:38;;;;;;;3.25;1.92;;;12.60;72.10;;;;;;5047750;28;20076;-50
2022/11/04 07:38:05;;;;;;;3.85;2.30;;;12.70;72.30;;;;;;5032635;28;20045;-52
2022/11/04 07:40:33;;;;;;;4.07;2.05;;;12.70;72.40;;;;;;5037089;28;20460;-51
2022/11/04 07:43:00;;;;;;;5.47;3.22;;;12.70;72.40;;;;;;5040629;28;20037;-55
2022/11/04 07:45:35;;;;;;;5.97;2.97;;;12.70;72.50;;;;;;5047348;28;20060;-55
2022/11/04 07:48:02;;;;;;;5.15;3.00;;;12.80;72.60;;;;;;5029321;28;20447;-54
2022/11/04 07:50:32;;;;;;;2.63;2.17;;;12.80;72.50;;;;;;5040131;28;20067;-52
2022/11/04 07:53:01;;;;;;;4.20;2.38;;;12.90;72.50;;;;;;5035714;28;20548;-55
2022/11/04 07:55:28;;;;;;;2.95;2.35;;;12.90;72.50;;;;;;5030821;28;20055;-54
2022/11/04 07:57:55;;;;;;;3.40;2.13;;;13.00;72.50;;;;;;5023605;28;20041;-53
2022/11/04 08:00:21;;;;;;;3.72;1.90;;;13.00;72.40;;;;;;5031003;28;20120;-53
2022/11/04 08:02:48;;;;;;;4.97;2.08;;;13.10;72.40;;;;;;5041425;28;20076;-51
2022/11/04 08:05:15;;;;;;;4.45;2.30;;;13.10;72.40;;;;;;5044267;28;20121;-52
2022/11/04 08:07:44;;;;;;;2.92;2.08;;;13.20;72.40;;;;;;5041600;28;20076;-50
2022/11/04 08:10:11;;;;;;;3.90;2.17;;;13.20;72.30;;;;;;5031792;28;20048;-51
2022/11/04 08:12:38;;;;;;;3.03;1.77;;;13.30;72.20;;;;;;5029689;28;20049;-51
2022/11/04 08:15:05;;;;;;;6.70;1.92;;;13.30;72.10;;;;;;5027691;28;20047;-51
2022/11/04 08:17:32;;;;;;;7.05;2.55;;;13.40;72.10;;;;;;5027591;28;20045;-54
2022/11/04 08:19:58;;;;;;;3.95;1.95;;;13.40;72.10;;;;;;5028890;28;20041;-54
2022/11/04 08:22:25;;;;;;;6.97;2.58;;;13.40;71.90;;;;;;5040278;28;20034;-54
2022/11/04 08:24:58;;;;;;;9.20;2.58;;;13.50;71.80;;;;;;5026151;28;20062;-53
2022/11/04 08:27:25;;;;;;;7.10;3.20;;;13.50;71.80;;;;;;5038879;28;20041;-53
2022/11/04 08:29:51;;;;;;;8.23;3.03;;;13.60;72.00;;;;;;5040326;28;20129;-51
2022/11/04 08:32:18;;;;;;;5.60;3.05;;;13.60;71.80;;;;;;5030882;28;20063;-53
2022/11/04 08:34:45;;;;;;;6.80;4.30;;;13.70;71.80;;;;;;5033476;28;20083;-51
2022/11/04 08:37:15;;;;;;;4.57;3.63;;;13.70;71.60;;;;;;5035463;28;20045;-50
2022/11/04 08:39:42;;;;;;;5.38;2.85;;;13.70;71.40;;;;;;5032528;28;20609;-52
2022/11/04 08:42:09;;;;;;;5.00;3.20;;;13.70;71.30;;;;;;5032965;28;20078;-49
2022/11/04 08:44:38;;;;;;;6.30;3.45;;;13.80;71.20;;;;;;5030383;28;20038;-52
2022/11/04 08:47:05;;;;;;;4.50;3.50;;;13.80;71.20;;;;;;5027683;28;20029;-50
2022/11/04 08:49:37;;;;;;;4.65;3.30;;;13.80;71.20;;;;;;5033073;28;20096;-51
2022/11/04 08:52:04;;;;;;;5.00;3.22;;;13.90;71.20;;;;;;5034415;28;20055;-49
2022/11/04 08:54:31;;;;;;;6.05;3.60;;;13.90;71.20;;;;;;5038890;28;20128;-52
2022/11/04 08:56:57;;;;;;;8.30;3.60;;;13.90;70.90;;;;;;5044653;28;20069;-48
2022/11/04 08:59:24;;;;;;;7.35;3.28;;;13.90;70.70;;;;;;5049035;28;20048;-55
2022/11/04 09:01:51;;;;;;;3.83;3.00;;;13.90;70.60;;;;;;5042703;28;20412;-52
2022/11/04 09:04:18;;;;;;;8.10;3.95;;;13.90;70.50;;;;;;5043891;28;20428;-54
2022/11/04 09:06:49;;;;;;;7.60;3.40;;;13.90;70.60;;;;;;5045386;28;20041;-50
2022/11/04 09:09:18;;;;;;;5.70;3.55;;;13.90;70.80;;;;;;5053253;28;20055;-51
2022/11/04 09:11:46;;;;;;;4.53;3.28;;;14.00;71.00;;;;;;5035083;28;20049;-50
2022/11/04 09:14:13;;;;;;;6.88;3.45;;;14.00;70.80;;;;;;5032907;28;20045;-51
2022/11/04 09:16:40;;;;;;;8.65;3.05;;;14.10;71.10;;;;;;5040686;28;20050;-52
2022/11/04 09:19:07;;;;;;;5.78;3.10;;;14.10;70.90;;;;;;5036629;28;20045;-52
2022/11/04 09:21:34;;;;;;;7.95;3.22;;;14.20;70.80;;;;;;5033203;28;20042;-51
2022/11/04 09:24:01;;;;;;;5.43;2.80;;;14.30;70.70;;;;;;5041423;28;20077;-49
2022/11/04 09:26:28;;;;;;;4.80;2.65;;;14.30;70.50;;;;;;5045102;28;20041;-49
2022/11/04 09:28:56;;;;;;;5.55;3.10;;;14.30;70.30;;;;;;5035464;28;20044;-51
2022/11/04 09:31:25;;;;;;;4.97;2.78;;;14.30;70.20;;;;;;5029195;28;20453;-49
2022/11/04 09:33:53;;;;;;;6.38;2.58;;;14.30;70.10;;;;;;5028420;28;20044;-52
2022/11/04 09:36:20;;;;;;;8.68;3.13;;;14.30;70.00;;;;;;5044205;28;20040;-52
2022/11/04 09:38:47;;;;;;;4.85;3.00;;;14.30;70.10;;;;;;5050645;28;20592;-51
2022/11/04 09:41:38;;;;;;;6.28;2.90;;;14.30;70.20;;;;;;5037754;28;20462;-50
2022/11/04 09:44:22;;;;;;;5.47;2.63;;;14.30;70.90;;;;;;5039667;28;20048;-49
2022/11/04 09:46:52;;;;;;;7.55;3.20;;;14.30;70.70;;;;;;5052405;28;20411;-51
2022/11/04 09:49:20;;;;;;;7.93;3.13;;;14.40;70.70;;;;;;5036810;28;20046;-51
2022/11/04 09:51:48;;;;;;;5.88;2.75;;;14.40;70.40;;;;;;5043920;28;20420;-53
2022/11/04 09:54:40;;;;;;;7.68;2.70;;;14.40;70.30;;;;;;5043130;28;20562;-52
2022/11/04 09:57:17;;;;;;;6.22;2.45;;;14.50;70.20;;;;;;5053034;28;20056;-52
2022/11/04 09:59:45;;;;;;;6.50;2.90;;;14.60;69.90;;;;;;5039331;28;20052;-49
2022/11/04 10:03:00;;;;;;;8.60;2.30;;;14.60;69.90;;;;;;5040188;28;20036;-52
2022/11/04 10:05:38;;;;;;;7.22;3.42;;;14.60;69.90;;;;;;5024437;28;20061;-50
2022/11/04 10:08:20;;;;;;;6.03;2.75;;;14.60;69.70;;;;;;5038816;28;20038;-50
2022/11/04 10:10:59;;;;;;;5.72;2.55;;;14.70;69.70;;;;;;5040976;28;20123;-48
2022/11/04 10:14:07;;;;;;;9.10;2.80;;;14.70;69.50;;;;;;5029612;28;20049;-49
2022/11/04 10:16:46;;;;;;;9.65;2.85;;;14.70;69.40;;;;;;5042593;28;20052;-48
2022/11/04 10:19:20;;;;;;;5.63;1.88;;;14.70;69.30;;;;;;5038210;28;20041;-53
2022/11/04 10:22:03;;;;;;;5.20;2.58;;;14.70;69.00;;;;;;5038818;28;20039;-48
2022/11/04 10:25:08;;;;;;;4.78;2.28;;;14.80;68.90;;;;;;5048572;28;20041;-54
2022/11/04 10:27:39;;;;;;;4.28;2.67;;;14.80;69.00;;;;;;5017225;28;20038;-54
2022/11/04 10:30:20;;;;;;;6.07;2.60;;;14.70;68.60;;;;;;5033372;28;20049;-52
2022/11/04 10:32:59;;;;;;;8.02;2.50;;;14.70;68.90;;;;;;5043226;28;20424;-52
2022/11/04 10:35:32;;;;;;;5.00;1.85;;;14.70;69.20;;;;;;5043872;28;20055;-53
2022/11/04 10:38:15;;;;;;;4.30;1.67;;;14.70;69.30;;;;;;5038618;28;20119;-55
2022/11/04 10:40:46;;;;;;;5.32;2.08;;;14.80;69.90;;;;;;5042702;28;20049;-52
2022/11/04 10:43:30;;;;;;;4.25;2.15;;;14.80;69.50;;;;;;5050690;28;20044;-54
2022/11/04 10:45:59;;;;;;;3.58;2.33;;;14.90;69.40;;;;;;5031819;28;20041;-50
2022/11/04 10:48:38;;;;;;;6.93;2.00;;;14.90;69.10;;;;;;5029756;28;20045;-55
2022/11/04 10:51:05;;;;;;;3.53;2.22;;;15.00;68.90;;;;;;5037743;28;20501;-53
2022/11/04 10:53:32;;;;;;;5.75;2.00;;;15.00;68.90;;;;;;5030601;28;20049;-52
2022/11/04 10:56:31;;;;;;;7.05;2.03;;;15.10;69.00;;;;;;5029691;28;20052;-52
2022/11/04 10:59:23;;;;;;;2.85;2.00;;;15.20;68.90;;;;;;5035320;28;20775;-53
2022/11/04 11:01:53;;;;;;;2.13;1.85;;;15.30;69.10;;;;;;5029976;28;20537;-53
2022/11/04 11:04:34;;;;;;;4.65;2.03;;;15.30;69.10;;;;;;5023479;28;20120;-49
2022/11/04 11:07:09;;;;;;;3.15;1.92;;;15.40;68.90;;;;;;5037930;28;20052;-53
2022/11/04 11:09:47;;;;;;;8.20;2.40;;;15.50;68.70;;;;;;5025979;28;20109;-53
2022/11/04 11:12:29;;;;;;;4.30;1.23;;;15.50;68.10;;;;;;5010060;28;20054;-49
2022/11/04 11:15:29;;;;;;;7.00;1.23;;;15.60;68.20;;;;;;5029563;28;20051;-52
2022/11/04 11:18:11;;;;;;;5.00;1.88;;;15.70;67.30;;;;;;5027500;28;20038;-49
2022/11/04 11:20:40;;;;;;;2.83;1.30;;;15.70;67.20;;;;;;5047494;28;20555;-53
2022/11/04 11:23:33;;;;;;;3.45;1.65;;;15.80;67.20;;;;;;5030903;28;20486;-53
2022/11/04 11:26:02;;;;;;;5.13;1.70;;;15.80;66.40;;;;;;5030138;28;20054;-53
2022/11/04 11:28:29;;;;;;;6.50;1.33;;;15.90;66.60;;;;;;5025768;28;20045;-50
2022/11/04 11:31:07;;;;;;;4.47;1.77;;;15.90;67.10;;;;;;5028961;28;20130;-52
2022/11/04 11:33:47;;;;;;;3.67;1.58;;;15.90;65.80;;;;;;5027106;28;20120;-53
2022/11/04 11:36:25;;;;;;;4.47;2.08;;;16.00;66.10;;;;;;5040782;28;20465;-52
2022/11/04 11:39:12;;;;;;;4.80;1.70;;;16.00;66.10;;;;;;5041720;28;20053;-53
2022/11/04 11:41:53;;;;;;;3.63;2.30;;;16.10;66.00;;;;;;5035225;28;20041;-53
2022/11/04 11:44:31;;;;;;;5.68;3.03;;;16.20;64.90;;;;;;5029485;28;20041;-53
2022/11/04 11:47:04;;;;;;;5.88;2.63;;;16.20;65.00;;;;;;5031111;28;20095;-53
2022/11/04 11:49:33;;;;;;;5.53;2.88;;;16.20;65.10;;;;;;5028817;28;20401;-52
2022/11/04 11:52:30;;;;;;;6.13;3.20;;;16.10;65.00;;;;;;5027764;28;20509;-52
2022/11/04 11:55:28;;;;;;;4.18;2.85;;;16.10;64.70;;;;;;5029952;28;20159;-52
2022/11/04 11:58:09;;;;;;;4.70;2.45;;;16.10;65.10;;;;;;5023837;28;20073;-52
2022/11/04 12:00:59;;;;;;;5.20;2.28;;;16.00;65.40;;;;;;5025554;28;20502;-52
2022/11/04 12:03:44;;;;;;;5.38;2.33;;;15.90;65.70;;;;;;5028065;28;20054;-53
2022/11/04 12:06:58;;;;;;;3.88;1.77;;;15.90;66.60;;;;;;5028426;28;20041;-51
2022/11/04 12:10:01;;;;;;;3.45;1.75;;;15.80;67.20;;;;;;5025664;28;20052;-50
2022/11/04 12:12:49;;;;;;;5.35;2.30;;;15.60;67.00;;;;;;5024968;28;20098;-49
2022/11/04 12:15:35;;;;;;;3.92;2.17;;;15.50;68.40;;;;;;5026397;28;20528;-51
2022/11/04 12:18:20;;;;;;;3.90;2.00;;;15.40;69.30;;;;;;5025519;28;20037;-49
2022/11/04 12:21:32;;;;;;;4.78;2.33;;;15.30;69.30;;;;;;5025633;28;20065;-52
2022/11/04 12:24:15;;;;;;;6.28;2.28;;;15.30;70.70;;;;;;4981368;28;20153;-52
2022/11/04 12:27:11;;;;;;;3.97;1.80;;;15.30;70.30;;;;;;4984952;28;20042;-50
2022/11/04 12:29:51;;;;;;;4.57;2.60;;;15.30;70.10;;;;;;5031397;28;20065;-49
2022/11/04 12:32:37;;;;;;;3.33;2.20;;;15.30;69.80;;;;;;5029091;28;20452;-50
2022/11/04 12:35:21;;;;;;;5.00;1.88;;;15.30;70.00;;;;;;5025302;28;20043;-53
2022/11/04 12:38:14;;;;;;;2.97;2.25;;;15.30;69.80;;;;;;5027886;28;20103;-53
2022/11/04 12:41:00;;;;;;;4.15;2.30;;;15.30;70.00;;;;;;5027449;28;20038;-51
2022/11/04 12:44:28;;;;;;;4.45;2.72;;;15.30;70.50;;;;;;5026690;28;21240;-51
2022/11/04 12:47:24;;;;;;;4.22;2.88;;;15.30;70.70;;;;;;5028272;28;20142;-53
2022/11/04 12:50:08;;;;;;;5.32;2.72;;;15.30;70.60;;;;;;5025352;28;20038;-53
2022/11/04 12:53:20;;;;;;;7.40;2.70;;;15.30;70.90;;;;;;5025571;28;20083;-53
2022/11/04 12:56:16;;;;;;;6.90;2.22;;;15.30;71.30;;;;;;5026959;28;21217;-52
2022/11/04 12:58:59;;;;;;;3.08;2.35;;;15.30;70.80;;;;;;5025840;28;20052;-51
2022/11/04 13:01:51;;;;;;;5.22;2.90;;;15.30;71.10;;;;;;5026538;28;20497;-50
2022/11/04 13:04:31;;;;;;;5.13;2.47;;;15.40;71.20;;;;;;5026128;28;20099;-52
2022/11/04 13:07:03;;;;;;;6.10;2.67;;;15.40;71.80;;;;;;5026560;28;20060;-51
2022/11/04 13:09:34;;;;;;;;;;;15.50;71.20;;;;;;5026283;28;20042;-52
2022/11/04 13:12:15;;;;;;;6.07;2.75;;;15.60;71.10;;;;;;5028069;28;20336;-53
2022/11/04 13:15:01;;;;;;;6.63;2.75;;;15.70;70.40;;;;;;5028360;28;20057;-52
2022/11/04 13:17:38;;;;;;;5.57;2.55;;;15.70;70.10;;;;;;5025592;28;20397;-53
2022/11/04 13:20:13;;;;;;;5.82;2.42;;;15.80;70.70;;;;;;5030793;28;20036;-52
2022/11/04 13:22:45;;;;;;;6.55;2.45;;;15.80;69.00;;;;;;5028579;28;20124;-53
2022/11/04 13:25:26;;;;;;;4.68;3.20;;;15.80;68.80;;;;;;5028960;28;20046;-49
2022/11/04 13:27:54;;;;;;;6.30;2.85;;;15.90;68.80;;;;;;5029564;28;20041;-53
2022/11/04 13:30:28;;;;;;;7.10;3.10;;;15.90;68.50;;;;;;5031853;28;20076;-49
2022/11/04 13:33:13;;;;;;;4.32;2.25;;;15.80;68.30;;;;;;5032039;28;20033;-52
2022/11/04 13:36:11;;;;;;;2.95;2.15;;;15.90;68.50;;;;;;5025177;28;20068;-53
2022/11/04 13:38:43;;;;;;;4.10;2.42;;;15.80;68.80;;;;;;5030796;28;20065;-53
2022/11/04 13:41:45;;;;;;;6.27;2.50;;;15.80;68.60;;;;;;5035253;28;20493;-48
2022/11/04 13:44:38;;;;;;;5.03;2.80;;;15.80;68.50;;;;;;5027582;28;20296;-51
2022/11/04 13:47:18;;;;;;;7.22;2.10;;;15.80;68.70;;;;;;5032945;28;20051;-50
2022/11/04 13:49:50;;;;;;;2.60;1.77;;;15.80;69.10;;;;;;5036227;28;20460;-53
2022/11/04 13:52:17;;;;;;;6.30;2.35;;;15.70;69.10;;;;;;5030869;28;20052;-52
2022/11/04 13:54:51;;;;;;;3.45;2.50;;;15.70;69.10;;;;;;5038515;28;20128;-49
2022/11/04 13:57:24;;;;;;;6.47;3.05;;;15.70;68.50;;;;;;5039743;28;20453;-53
2022/11/04 14:00:10;;;;;;;6.00;2.78;;;15.60;68.30;;;;;;5032190;28;20779;-53